Time;durP1;ratioP1;P1;durP2;ratioP2;P2;SDS_P1;SDS_P2;PMS_P1;PMS_P2;Temp;Humidity;BMP_temperature;BMP_pressure;BME280_temperature;BME280_humidity;BME280_pressure;Samples;Min_cycle;Max_cycle;Signal;HPM_P1;HPM_P2
2023/08/10 00:01:41;;;;;;;1.60;1.50;;;15.40;99.90;;;;;;4966398;28;20199;-65
2023/08/10 00:04:07;;;;;;;1.97;1.50;;;15.40;99.90;;;;;;4966168;28;21030;-65
2023/08/10 00:06:34;;;;;;;4.03;1.77;;;15.30;99.90;;;;;;4966485;28;20211;-65
2023/08/10 00:09:04;;;;;;;1.63;1.53;;;15.30;99.90;;;;;;4966083;28;20775;-65
2023/08/10 00:11:31;;;;;;;1.50;1.40;;;15.30;99.90;;;;;;4963680;28;20211;-65
2023/08/10 00:13:57;;;;;;;2.10;1.70;;;15.30;99.90;;;;;;4966058;28;20238;-65
2023/08/10 00:16:24;;;;;;;2.37;2.03;;;15.30;99.90;;;;;;4965384;28;20294;-65
2023/08/10 00:18:52;;;;;;;1.77;1.40;;;15.30;99.90;;;;;;4966191;28;20301;-65
2023/08/10 00:21:18;;;;;;;3.20;1.57;;;15.30;99.90;;;;;;4965463;28;20235;-65
2023/08/10 00:23:45;;;;;;;1.70;1.60;;;15.20;99.90;;;;;;4968447;28;20226;-65
2023/08/10 00:26:14;;;;;;;1.70;1.57;;;15.20;99.90;;;;;;4968601;28;20305;-65
2023/08/10 00:28:40;;;;;;;2.27;1.73;;;15.20;99.90;;;;;;4969340;28;20293;-65
2023/08/10 00:31:07;;;;;;;1.50;1.40;;;15.10;99.90;;;;;;4968873;28;20199;-65
2023/08/10 00:33:34;;;;;;;2.13;1.80;;;15.10;99.90;;;;;;4969466;28;20299;-65
2023/08/10 00:36:06;;;;;;;1.90;1.80;;;15.10;99.90;;;;;;4969537;28;20310;-65
2023/08/10 00:38:33;;;;;;;1.77;1.67;;;15.10;99.90;;;;;;4969603;28;20207;-65
2023/08/10 00:41:00;;;;;;;1.77;1.67;;;15.10;99.90;;;;;;4969867;28;20215;-65
2023/08/10 00:43:29;;;;;;;2.03;1.33;;;15.10;99.90;;;;;;4969533;28;20227;-64
2023/08/10 00:45:56;;;;;;;1.80;1.63;;;15.10;99.90;;;;;;4969918;28;20231;-65
2023/08/10 00:48:24;;;;;;;4.60;2.30;;;15.10;99.90;;;;;;4969502;28;20745;-65
2023/08/10 00:50:51;;;;;;;2.87;1.73;;;15.10;99.90;;;;;;4969680;28;20200;-65
2023/08/10 00:53:19;;;;;;;3.33;1.73;;;15.10;99.90;;;;;;4969278;28;20300;-65
2023/08/10 00:55:51;;;;;;;1.67;1.37;;;15.10;99.90;;;;;;4969208;28;20293;-65
2023/08/10 00:58:18;;;;;;;2.07;1.60;;;15.00;99.90;;;;;;4968906;28;20638;-65
2023/08/10 01:00:46;;;;;;;2.73;1.50;;;15.00;99.90;;;;;;4968748;28;20306;-65
2023/08/10 01:03:13;;;;;;;1.73;1.60;;;15.00;99.90;;;;;;4967839;28;20657;-65
2023/08/10 01:05:49;;;;;;;3.40;2.17;;;15.00;99.90;;;;;;4968785;28;20261;-65
2023/08/10 01:08:22;;;;;;;2.70;1.50;;;15.00;99.90;;;;;;4968635;28;20202;-65
2023/08/10 01:10:59;;;;;;;2.30;1.70;;;15.00;99.90;;;;;;4968912;28;20661;-65
2023/08/10 01:13:33;;;;;;;4.13;1.90;;;15.00;99.90;;;;;;4968714;28;20289;-65
2023/08/10 01:16:08;;;;;;;1.50;1.50;;;15.00;99.90;;;;;;4968305;28;20281;-65
2023/08/10 01:18:36;;;;;;;1.67;1.57;;;15.00;99.90;;;;;;4968455;28;20199;-65
2023/08/10 01:21:08;;;;;;;2.87;1.83;;;15.00;99.90;;;;;;4968304;28;20258;-65
2023/08/10 01:23:39;;;;;;;2.33;1.60;;;15.00;99.90;;;;;;4968281;28;20723;-65
2023/08/10 01:26:08;;;;;;;2.03;1.83;;;15.00;99.90;;;;;;4954549;28;20196;-65
2023/08/10 01:28:36;;;;;;;3.83;1.70;;;14.90;99.90;;;;;;4948951;28;20304;-65
2023/08/10 01:31:03;;;;;;;2.13;1.90;;;14.90;99.90;;;;;;4960180;28;20211;-65
2023/08/10 01:33:30;;;;;;;3.07;1.70;;;14.90;99.90;;;;;;4967593;28;20203;-65
2023/08/10 01:35:57;;;;;;;4.10;1.70;;;14.90;99.90;;;;;;4968194;28;20215;-65
2023/08/10 01:38:24;;;;;;;2.50;1.80;;;14.90;99.90;;;;;;4968183;28;20223;-65
2023/08/10 01:40:52;;;;;;;1.90;1.80;;;14.90;99.90;;;;;;4968524;28;20245;-64
2023/08/10 01:43:20;;;;;;;4.30;1.70;;;14.90;99.90;;;;;;4968175;28;20242;-65
2023/08/10 01:45:50;;;;;;;2.90;1.80;;;14.90;99.90;;;;;;4968078;28;20265;-64
2023/08/10 01:48:21;;;;;;;1.87;1.67;;;14.90;99.90;;;;;;4968517;28;20246;-65
2023/08/10 01:50:51;;;;;;;2.60;1.70;;;14.80;99.90;;;;;;4968009;28;21007;-65
2023/08/10 01:53:25;;;;;;;1.90;1.80;;;14.80;99.90;;;;;;4968426;28;20303;-64
2023/08/10 01:55:57;;;;;;;2.10;1.50;;;14.80;99.90;;;;;;4968372;28;20207;-64
2023/08/10 01:58:25;;;;;;;1.67;1.57;;;14.80;99.90;;;;;;4967760;28;20203;-65
2023/08/10 02:00:52;;;;;;;2.23;2.03;;;14.80;99.90;;;;;;4967956;28;20293;-65
2023/08/10 02:03:19;;;;;;;2.27;1.70;;;14.70;99.90;;;;;;4967740;28;20306;-64
2023/08/10 02:05:46;;;;;;;1.53;1.43;;;14.70;99.90;;;;;;4967294;28;20249;-64
2023/08/10 02:08:13;;;;;;;2.27;1.97;;;14.70;99.90;;;;;;4967549;28;20689;-65
2023/08/10 02:10:40;;;;;;;4.07;1.80;;;14.70;99.90;;;;;;4967356;28;20206;-66
2023/08/10 02:13:07;;;;;;;2.13;1.67;;;14.70;99.90;;;;;;4967354;28;20562;-64
2023/08/10 02:15:35;;;;;;;2.10;1.90;;;14.70;99.90;;;;;;4967576;28;20951;-65
2023/08/10 02:18:02;;;;;;;1.77;1.67;;;14.70;99.90;;;;;;4967356;28;20215;-65
2023/08/10 02:20:29;;;;;;;3.73;1.93;;;14.70;99.90;;;;;;4967373;28;20217;-65
2023/08/10 02:22:56;;;;;;;3.60;2.07;;;14.60;99.90;;;;;;4967050;28;20241;-63
2023/08/10 02:25:23;;;;;;;1.93;1.80;;;14.60;99.90;;;;;;4967185;28;20787;-65
2023/08/10 02:27:51;;;;;;;1.80;1.70;;;14.60;99.90;;;;;;4967793;28;20313;-65
2023/08/10 02:30:18;;;;;;;1.87;1.43;;;14.60;99.90;;;;;;4964713;28;20214;-65
2023/08/10 02:32:47;;;;;;;1.77;1.67;;;14.60;99.90;;;;;;4959899;28;20338;-65
2023/08/10 02:35:14;;;;;;;2.00;1.83;;;14.50;99.90;;;;;;4964938;28;20269;-65
2023/08/10 02:37:42;;;;;;;4.47;1.90;;;14.50;99.90;;;;;;4964989;28;20209;-65
2023/08/10 02:40:11;;;;;;;3.10;1.50;;;14.50;99.90;;;;;;4964693;28;20266;-65
2023/08/10 02:42:38;;;;;;;3.13;1.90;;;14.40;99.90;;;;;;4965680;28;20207;-65
2023/08/10 02:45:07;;;;;;;3.47;1.97;;;14.40;99.90;;;;;;4965716;28;20301;-65
2023/08/10 02:47:34;;;;;;;2.10;1.90;;;14.30;99.90;;;;;;4965579;28;20218;-65
2023/08/10 02:50:05;;;;;;;2.00;1.83;;;14.40;99.90;;;;;;4965065;28;20213;-65
2023/08/10 02:52:34;;;;;;;1.80;1.70;;;14.30;99.90;;;;;;4964727;28;20261;-65
2023/08/10 02:55:02;;;;;;;3.87;1.97;;;14.30;99.90;;;;;;4964835;28;20211;-65
2023/08/10 02:57:30;;;;;;;1.90;1.70;;;14.30;99.90;;;;;;4964796;28;20259;-65
2023/08/10 02:59:57;;;;;;;2.17;1.80;;;14.30;99.90;;;;;;4964792;28;20214;-65
2023/08/10 03:02:24;;;;;;;3.27;1.60;;;14.20;99.90;;;;;;4962880;28;20238;-65
2023/08/10 03:04:51;;;;;;;2.20;1.97;;;14.20;99.90;;;;;;4962333;28;20231;-65
2023/08/10 03:07:19;;;;;;;1.87;1.77;;;14.20;99.90;;;;;;4965298;28;20207;-65
2023/08/10 03:09:46;;;;;;;2.00;1.80;;;14.20;99.90;;;;;;4965628;28;20218;-65
2023/08/10 03:12:13;;;;;;;4.33;1.60;;;14.20;99.90;;;;;;4951020;28;20298;-65
2023/08/10 03:14:40;;;;;;;2.10;1.90;;;14.10;99.90;;;;;;4965706;28;20218;-65
2023/08/10 03:17:07;;;;;;;1.80;1.70;;;14.20;99.90;;;;;;4965411;28;20199;-65
2023/08/10 03:19:34;;;;;;;2.10;2.00;;;14.30;99.90;;;;;;4965621;28;20309;-65
2023/08/10 03:22:07;;;;;;;1.30;1.30;;;14.30;99.90;;;;;;4966083;28;20322;-65
2023/08/10 03:24:37;;;;;;;2.37;1.60;;;14.20;99.90;;;;;;4966136;28;20314;-65
2023/08/10 03:27:04;;;;;;;1.60;1.50;;;14.20;99.90;;;;;;4966387;28;20321;-65
2023/08/10 03:29:31;;;;;;;1.73;1.60;;;14.20;99.90;;;;;;4966232;28;20215;-65
2023/08/10 03:31:58;;;;;;;1.90;1.60;;;14.10;99.90;;;;;;4966067;28;20333;-65
2023/08/10 03:34:25;;;;;;;5.90;1.87;;;14.10;99.90;;;;;;4966137;28;20713;-65
2023/08/10 03:36:52;;;;;;;1.60;1.50;;;14.10;99.90;;;;;;4966471;28;20483;-65
2023/08/10 03:39:18;;;;;;;2.03;1.40;;;14.10;99.90;;;;;;4965764;28;20218;-65
2023/08/10 03:41:47;;;;;;;1.47;1.40;;;14.10;99.90;;;;;;4966414;28;20270;-65
2023/08/10 03:44:14;;;;;;;6.53;1.97;;;14.00;99.90;;;;;;4966035;28;20677;-65
2023/08/10 03:46:40;;;;;;;1.77;1.50;;;14.00;99.90;;;;;;4966386;28;20318;-65
2023/08/10 03:49:07;;;;;;;3.63;1.80;;;13.90;99.90;;;;;;4966190;28;20301;-65
2023/08/10 03:51:34;;;;;;;1.63;1.40;;;13.90;99.90;;;;;;4966227;28;20217;-65
2023/08/10 03:54:01;;;;;;;3.13;1.40;;;13.90;99.90;;;;;;4966490;28;20206;-65
2023/08/10 03:56:28;;;;;;;2.93;1.67;;;13.90;99.90;;;;;;4966315;28;20286;-65
2023/08/10 03:58:56;;;;;;;1.87;1.63;;;13.90;99.90;;;;;;4958037;28;20219;-65
2023/08/10 04:01:23;;;;;;;2.27;1.50;;;13.90;99.90;;;;;;4950656;28;20571;-65
2023/08/10 04:03:50;;;;;;;1.47;1.37;;;13.90;99.90;;;;;;4951023;28;20330;-65
2023/08/10 04:06:17;;;;;;;1.97;1.40;;;13.90;99.90;;;;;;4965333;28;20332;-65
2023/08/10 04:08:44;;;;;;;1.83;1.70;;;13.90;99.90;;;;;;4970542;28;20217;-65
2023/08/10 04:11:11;;;;;;;1.67;1.50;;;13.90;99.90;;;;;;4975415;28;20407;-65
2023/08/10 04:13:38;;;;;;;1.80;1.70;;;14.00;99.90;;;;;;4970694;28;20292;-65
2023/08/10 04:16:06;;;;;;;4.20;1.73;;;14.00;99.90;;;;;;4970468;28;20258;-65
2023/08/10 04:18:33;;;;;;;2.07;1.70;;;14.00;99.90;;;;;;4970630;28;20293;-65
2023/08/10 04:21:01;;;;;;;1.87;1.70;;;14.00;99.90;;;;;;4970609;28;20294;-65
2023/08/10 04:23:28;;;;;;;2.13;1.57;;;14.00;99.90;;;;;;4969540;28;20328;-65
2023/08/10 04:25:55;;;;;;;1.70;1.60;;;14.00;99.90;;;;;;4969981;28;20234;-65
2023/08/10 04:28:21;;;;;;;3.73;1.77;;;14.10;99.90;;;;;;4970194;28;20238;-65
2023/08/10 04:30:48;;;;;;;2.63;1.80;;;14.10;99.90;;;;;;4969574;28;20210;-65
2023/08/10 04:33:17;;;;;;;3.10;1.77;;;14.20;99.90;;;;;;4968909;28;20705;-65
2023/08/10 04:35:43;;;;;;;2.20;1.60;;;14.20;99.90;;;;;;4969656;28;20234;-65
2023/08/10 04:38:11;;;;;;;1.87;1.70;;;14.20;99.90;;;;;;4969276;28;20640;-65
2023/08/10 04:40:38;;;;;;;1.60;1.50;;;14.30;99.90;;;;;;4969249;28;20738;-65
2023/08/10 04:43:05;;;;;;;3.57;1.90;;;14.30;99.90;;;;;;4969235;28;20929;-65
2023/08/10 04:45:32;;;;;;;2.17;1.80;;;14.30;99.90;;;;;;4969295;28;20274;-65
2023/08/10 04:47:59;;;;;;;2.37;1.57;;;14.40;99.90;;;;;;4969112;28;20848;-65
2023/08/10 04:50:29;;;;;;;3.17;1.60;;;14.40;99.90;;;;;;4969294;28;20280;-65
2023/08/10 04:52:55;;;;;;;1.70;1.60;;;14.40;99.90;;;;;;4969080;28;20214;-65
2023/08/10 04:55:22;;;;;;;3.63;1.73;;;14.50;99.90;;;;;;4969176;28;20218;-65
2023/08/10 04:57:49;;;;;;;3.17;1.60;;;14.50;99.90;;;;;;4969300;28;20211;-65
2023/08/10 05:00:17;;;;;;;2.67;1.70;;;14.40;99.90;;;;;;4969008;28;20302;-65
2023/08/10 05:02:44;;;;;;;2.67;2.20;;;14.50;99.90;;;;;;4968294;28;20696;-65
2023/08/10 05:05:11;;;;;;;3.13;1.77;;;14.50;99.90;;;;;;4960470;28;20238;-65
2023/08/10 05:07:39;;;;;;;3.60;1.60;;;14.50;99.90;;;;;;4985374;28;20309;-65
2023/08/10 05:10:09;;;;;;;3.30;2.13;;;14.50;99.90;;;;;;4984099;28;20254;-65
2023/08/10 05:12:38;;;;;;;2.63;1.93;;;14.60;99.90;;;;;;4968845;28;20293;-65
2023/08/10 05:15:06;;;;;;;4.83;1.50;;;14.60;99.90;;;;;;4968817;28;20218;-65
2023/08/10 05:17:33;;;;;;;2.70;1.57;;;14.70;99.90;;;;;;4949256;28;20709;-65
2023/08/10 05:20:02;;;;;;;4.43;1.80;;;14.70;99.90;;;;;;4949400;28;20961;-66
2023/08/10 05:22:29;;;;;;;6.00;1.73;;;14.60;99.90;;;;;;4948970;28;20647;-65
2023/08/10 05:24:57;;;;;;;1.80;1.70;;;14.60;99.90;;;;;;4948882;28;20808;-66
2023/08/10 05:27:24;;;;;;;4.00;1.90;;;14.60;99.90;;;;;;4953153;28;20213;-66
2023/08/10 05:29:51;;;;;;;3.03;1.67;;;14.60;99.90;;;;;;4968307;28;20215;-65
2023/08/10 05:32:18;;;;;;;3.43;1.80;;;14.60;99.90;;;;;;4968320;28;20300;-65
2023/08/10 05:34:45;;;;;;;2.53;1.77;;;14.60;99.90;;;;;;4968529;28;20207;-65
2023/08/10 05:37:12;;;;;;;3.70;1.87;;;14.60;99.90;;;;;;4967988;28;20682;-65
2023/08/10 05:39:39;;;;;;;2.60;1.50;;;14.60;99.90;;;;;;4968172;28;20209;-65
2023/08/10 05:42:08;;;;;;;3.53;1.60;;;14.50;99.90;;;;;;4963458;28;20211;-66
2023/08/10 05:44:35;;;;;;;4.13;1.90;;;14.60;99.90;;;;;;4968276;28;20692;-65
2023/08/10 05:47:02;;;;;;;4.20;1.80;;;14.60;99.90;;;;;;4968196;28;20306;-65
2023/08/10 05:49:29;;;;;;;2.73;1.87;;;14.50;99.90;;;;;;4968170;28;20218;-65
2023/08/10 05:51:56;;;;;;;4.40;1.90;;;14.50;99.90;;;;;;4968360;28;20207;-66
2023/08/10 05:54:23;;;;;;;6.60;2.43;;;14.50;99.90;;;;;;4968151;28;20306;-66
2023/08/10 05:56:50;;;;;;;8.30;2.47;;;14.50;99.90;;;;;;4967938;28;20655;-65
2023/08/10 05:59:18;;;;;;;6.37;1.93;;;14.50;99.90;;;;;;4968193;28;20242;-65
2023/08/10 06:01:47;;;;;;;2.10;1.87;;;14.50;99.90;;;;;;4968573;28;20321;-66
2023/08/10 06:04:14;;;;;;;6.07;2.00;;;14.50;99.90;;;;;;4987180;28;20272;-65
2023/08/10 06:06:41;;;;;;;4.97;1.83;;;14.50;99.90;;;;;;4987197;28;20226;-65
2023/08/10 06:09:11;;;;;;;3.83;1.80;;;14.50;99.90;;;;;;4987112;28;20297;-65
2023/08/10 06:11:38;;;;;;;5.30;1.83;;;14.60;99.90;;;;;;4972346;28;20278;-65
2023/08/10 06:14:05;;;;;;;2.30;1.80;;;14.70;99.90;;;;;;4967435;28;20636;-65
2023/08/10 06:16:33;;;;;;;4.87;1.87;;;14.80;99.90;;;;;;4955576;28;20200;-65
2023/08/10 06:19:01;;;;;;;4.40;1.70;;;14.80;99.90;;;;;;4948811;28;20893;-66
2023/08/10 06:21:28;;;;;;;2.53;1.93;;;14.90;99.90;;;;;;4947671;28;20785;-65
2023/08/10 06:23:55;;;;;;;5.57;2.00;;;14.90;99.90;;;;;;4954771;28;20211;-66
2023/08/10 06:26:22;;;;;;;4.33;1.70;;;15.00;99.90;;;;;;4967302;28;20320;-66
2023/08/10 06:28:49;;;;;;;5.33;2.03;;;15.10;99.90;;;;;;4967565;28;20298;-65
2023/08/10 06:31:16;;;;;;;4.17;2.23;;;15.20;99.90;;;;;;4966975;28;21569;-66
2023/08/10 06:33:44;;;;;;;5.07;2.10;;;15.20;99.90;;;;;;4967426;28;20307;-65
2023/08/10 06:36:11;;;;;;;7.27;1.97;;;15.20;99.90;;;;;;4966806;28;20686;-66
2023/08/10 06:38:38;;;;;;;5.33;1.80;;;15.20;99.90;;;;;;4967105;28;20215;-66
2023/08/10 06:41:05;;;;;;;6.80;2.03;;;15.30;99.90;;;;;;4956564;28;20218;-66
2023/08/10 06:43:32;;;;;;;8.13;1.87;;;15.40;99.90;;;;;;4948225;28;20637;-65
2023/08/10 06:46:00;;;;;;;6.23;1.83;;;15.50;99.90;;;;;;4948029;28;20334;-66
2023/08/10 06:48:27;;;;;;;4.67;2.13;;;15.50;99.90;;;;;;4965767;28;20693;-65
2023/08/10 06:50:55;;;;;;;4.27;1.87;;;15.50;99.90;;;;;;4967571;28;20261;-66
2023/08/10 06:53:22;;;;;;;8.10;2.27;;;15.60;99.90;;;;;;4966993;28;20317;-65
2023/08/10 06:55:50;;;;;;;8.90;2.00;;;15.70;99.90;;;;;;4967306;28;20513;-66
2023/08/10 06:58:17;;;;;;;6.73;1.90;;;15.80;99.90;;;;;;4969821;28;20229;-66
2023/08/10 07:00:44;;;;;;;4.03;1.63;;;15.90;99.90;;;;;;4986755;28;20225;-66
2023/08/10 07:03:11;;;;;;;6.03;2.17;;;16.00;99.90;;;;;;4986496;28;20217;-66
2023/08/10 07:05:39;;;;;;;6.20;1.53;;;16.00;99.90;;;;;;4986378;28;20688;-66
2023/08/10 07:08:08;;;;;;;4.53;1.67;;;16.10;99.90;;;;;;4986219;28;20241;-66
2023/08/10 07:10:35;;;;;;;7.07;2.00;;;16.20;99.90;;;;;;4979594;28;20221;-66
2023/08/10 07:13:02;;;;;;;3.30;1.60;;;16.30;99.90;;;;;;4966809;28;20215;-65
2023/08/10 07:15:29;;;;;;;6.27;1.90;;;16.30;99.90;;;;;;4963304;28;20302;-66
2023/08/10 07:17:57;;;;;;;6.27;1.93;;;16.30;99.90;;;;;;4947588;28;20290;-66
2023/08/10 07:20:24;;;;;;;3.83;1.90;;;16.40;99.90;;;;;;4955763;28;20757;-66
2023/08/10 07:22:52;;;;;;;4.93;2.03;;;16.30;99.90;;;;;;4967038;28;20599;-65
2023/08/10 07:25:21;;;;;;;4.40;1.87;;;16.30;99.90;;;;;;4967046;28;20586;-66
2023/08/10 07:27:48;;;;;;;3.57;1.93;;;16.40;99.90;;;;;;4966795;28;20206;-65
2023/08/10 07:30:16;;;;;;;5.10;1.70;;;16.40;99.90;;;;;;4966548;28;20582;-66
2023/08/10 07:32:43;;;;;;;6.23;1.67;;;16.40;99.90;;;;;;4965573;28;20245;-65
2023/08/10 07:35:10;;;;;;;9.30;2.33;;;16.40;99.90;;;;;;4966253;28;20221;-66
2023/08/10 07:37:40;;;;;;;7.40;2.03;;;16.50;99.90;;;;;;4966350;28;20301;-66
2023/08/10 07:40:09;;;;;;;4.53;1.83;;;16.50;99.90;;;;;;4966279;28;20219;-65
2023/08/10 07:42:37;;;;;;;5.37;1.87;;;16.50;99.90;;;;;;4966186;28;21059;-66
2023/08/10 07:45:09;;;;;;;4.60;1.80;;;16.60;99.90;;;;;;4966128;28;20274;-66
2023/08/10 07:47:36;;;;;;;4.97;1.80;;;16.60;99.90;;;;;;4966256;28;20635;-66
2023/08/10 07:50:03;;;;;;;3.33;1.70;;;16.50;99.90;;;;;;4966356;28;20302;-67
2023/08/10 07:52:30;;;;;;;7.50;2.00;;;16.60;99.90;;;;;;4966199;28;20268;-66
2023/08/10 07:54:57;;;;;;;5.40;1.60;;;16.60;99.90;;;;;;4966237;28;20301;-66
2023/08/10 07:57:24;;;;;;;5.87;1.87;;;16.60;99.90;;;;;;4966716;28;20317;-65
2023/08/10 07:59:52;;;;;;;3.17;1.60;;;16.60;99.90;;;;;;4966750;28;20226;-66
2023/08/10 08:02:19;;;;;;;6.73;1.97;;;16.60;99.90;;;;;;4966115;28;20273;-66
2023/08/10 08:04:46;;;;;;;4.87;1.53;;;16.60;99.90;;;;;;4966244;28;20310;-66
2023/08/10 08:07:13;;;;;;;3.43;1.67;;;16.60;99.90;;;;;;4966139;28;20671;-65
2023/08/10 08:09:40;;;;;;;4.00;1.60;;;16.70;99.90;;;;;;4965893;28;20305;-66
2023/08/10 08:12:07;;;;;;;5.33;1.70;;;16.80;99.90;;;;;;4966243;28;20214;-66
2023/08/10 08:14:34;;;;;;;2.63;1.23;;;16.80;99.90;;;;;;4966232;28;20303;-66
2023/08/10 08:17:02;;;;;;;5.00;1.97;;;16.90;99.90;;;;;;4965674;28;20207;-65
2023/08/10 08:19:29;;;;;;;3.57;1.20;;;17.00;99.90;;;;;;4966368;28;20215;-66
2023/08/10 08:21:56;;;;;;;5.67;1.83;;;17.10;99.90;;;;;;4966304;28;20322;-65
2023/08/10 08:24:23;;;;;;;4.93;1.47;;;17.20;99.90;;;;;;4965996;28;20211;-66
2023/08/10 08:26:50;;;;;;;6.70;1.60;;;17.30;99.90;;;;;;4965761;28;20274;-66
2023/08/10 08:29:17;;;;;;;5.73;1.83;;;17.20;99.90;;;;;;4966085;28;20257;-66
2023/08/10 08:31:44;;;;;;;5.07;1.80;;;17.30;99.90;;;;;;4965281;28;20274;-66
2023/08/10 08:34:14;;;;;;;3.40;1.60;;;17.40;99.90;;;;;;4965881;28;20247;-66
2023/08/10 08:36:41;;;;;;;2.73;1.47;;;17.40;99.90;;;;;;4966209;28;20211;-66
2023/08/10 08:39:08;;;;;;;2.47;1.40;;;17.50;99.90;;;;;;4965517;28;20688;-66
2023/08/10 08:41:37;;;;;;;3.67;1.83;;;17.50;99.90;;;;;;4965313;28;20306;-66
2023/08/10 08:44:05;;;;;;;3.43;1.47;;;17.50;99.90;;;;;;4967783;28;20230;-66
2023/08/10 08:46:38;;;;;;;2.47;1.43;;;17.60;99.90;;;;;;4969029;28;20239;-66
2023/08/10 08:49:06;;;;;;;4.00;1.80;;;17.60;99.90;;;;;;4969353;28;20217;-66
2023/08/10 08:51:34;;;;;;;4.10;1.60;;;17.50;99.90;;;;;;4968952;28;20249;-66
2023/08/10 08:54:02;;;;;;;3.47;1.60;;;17.60;99.90;;;;;;4969121;28;20258;-66
2023/08/10 08:56:29;;;;;;;3.40;1.20;;;17.50;99.90;;;;;;4968817;28;20207;-66
2023/08/10 08:58:56;;;;;;;6.30;1.70;;;17.60;99.90;;;;;;4969127;28;20298;-66
2023/08/10 09:01:23;;;;;;;3.73;1.57;;;17.70;99.90;;;;;;4969108;28;20841;-66
2023/08/10 09:03:50;;;;;;;4.00;1.60;;;17.70;99.90;;;;;;4969343;28;20305;-66
2023/08/10 09:06:18;;;;;;;5.83;1.60;;;17.70;99.90;;;;;;4968918;28;20317;-66
2023/08/10 09:08:46;;;;;;;4.30;1.30;;;17.60;99.90;;;;;;4968470;28;20219;-66
2023/08/10 09:11:13;;;;;;;6.93;1.80;;;17.70;99.90;;;;;;4956856;28;20290;-66
2023/08/10 09:13:40;;;;;;;2.20;1.50;;;17.80;99.90;;;;;;4949668;28;20310;-66
2023/08/10 09:16:09;;;;;;;4.43;1.67;;;17.90;99.90;;;;;;4949627;28;20227;-66
2023/08/10 09:18:38;;;;;;;3.57;1.30;;;18.10;99.90;;;;;;4949695;28;20624;-66
2023/08/10 09:21:13;;;;;;;1.93;1.20;;;18.20;99.90;;;;;;4949875;28;20275;-66
2023/08/10 09:23:41;;;;;;;2.80;1.50;;;18.20;99.90;;;;;;4949325;28;20207;-66
2023/08/10 09:26:10;;;;;;;5.13;1.73;;;18.30;99.90;;;;;;4949576;28;20239;-66
2023/08/10 09:28:37;;;;;;;5.63;1.73;;;18.20;99.90;;;;;;4949530;28;20302;-66
2023/08/10 09:31:04;;;;;;;6.07;1.60;;;18.30;99.90;;;;;;4949426;28;20529;-66
2023/08/10 09:33:33;;;;;;;6.00;1.60;;;18.30;99.90;;;;;;4948981;28;20738;-66
2023/08/10 09:36:00;;;;;;;4.93;1.93;;;18.20;99.90;;;;;;4957481;28;20714;-66
2023/08/10 09:38:27;;;;;;;7.93;1.73;;;18.20;99.90;;;;;;4968401;28;20294;-66
2023/08/10 09:41:12;;;;;;;2.70;1.40;;;18.10;99.90;;;;;;4968261;28;20215;-66
2023/08/10 09:43:39;;;;;;;4.53;1.60;;;18.10;99.90;;;;;;4968851;28;20207;-66
2023/08/10 09:46:09;;;;;;;3.70;1.70;;;18.20;99.90;;;;;;4968177;28;20855;-66
2023/08/10 09:48:37;;;;;;;2.50;1.53;;;18.40;99.90;;;;;;4984010;28;20345;-66
2023/08/10 09:51:05;;;;;;;4.50;1.70;;;18.70;99.90;;;;;;4987670;28;20214;-66
2023/08/10 09:53:32;;;;;;;4.70;1.80;;;18.70;99.90;;;;;;4987300;28;20241;-66
2023/08/10 09:56:00;;;;;;;3.43;1.60;;;18.70;99.90;;;;;;4987143;28;20657;-66
2023/08/10 09:58:30;;;;;;;4.50;1.93;;;18.70;99.90;;;;;;4987925;28;20214;-66
2023/08/10 10:00:57;;;;;;;5.73;1.67;;;18.60;99.90;;;;;;4987671;28;20244;-66
2023/08/10 10:03:29;;;;;;;4.77;1.67;;;18.60;99.90;;;;;;4987336;28;20657;-66
2023/08/10 10:05:57;;;;;;;7.00;1.80;;;18.70;99.90;;;;;;4987276;28;20209;-66
2023/08/10 10:08:26;;;;;;;4.60;1.80;;;18.70;99.90;;;;;;4986776;28;20936;-66
2023/08/10 10:10:57;;;;;;;2.90;1.60;;;18.70;99.90;;;;;;4987507;28;20210;-66
2023/08/10 10:13:24;;;;;;;4.40;1.60;;;18.80;99.90;;;;;;4987213;28;20298;-66
2023/08/10 10:15:55;;;;;;;5.47;1.60;;;18.80;99.90;;;;;;4980674;28;20237;-66
2023/08/10 10:18:23;;;;;;;2.37;1.70;;;18.80;99.90;;;;;;4968175;28;20214;-66
2023/08/10 10:20:51;;;;;;;3.13;1.70;;;18.70;99.90;;;;;;4968182;28;20222;-66
2023/08/10 10:23:19;;;;;;;5.30;1.70;;;18.80;99.90;;;;;;4967652;28;20211;-66
2023/08/10 10:26:01;;;;;;;3.57;1.87;;;18.80;99.90;;;;;;4968401;28;20214;-66
2023/08/10 10:28:30;;;;;;;5.00;2.10;;;19.00;99.90;;;;;;4967950;28;20238;-66
2023/08/10 10:31:09;;;;;;;2.93;1.73;;;19.10;99.90;;;;;;4967945;28;20214;-67
2023/08/10 10:33:38;;;;;;;4.63;1.53;;;19.30;99.90;;;;;;4968222;28;20253;-66
2023/08/10 10:36:07;;;;;;;3.63;1.43;;;19.40;99.90;;;;;;4967709;28;20214;-66
2023/08/10 10:38:34;;;;;;;7.47;1.70;;;19.60;99.90;;;;;;4967421;28;20217;-66
2023/08/10 10:41:09;;;;;;;2.33;1.37;;;19.80;99.90;;;;;;4957746;28;20224;-66
2023/08/10 10:43:36;;;;;;;3.83;1.30;;;20.00;99.90;;;;;;4963844;28;20770;-66
2023/08/10 10:46:05;;;;;;;3.40;1.50;;;19.90;99.90;;;;;;4967458;28;20312;-66
2023/08/10 10:48:35;;;;;;;3.37;1.40;;;20.00;99.90;;;;;;4967085;28;20714;-66
2023/08/10 10:51:06;;;;;;;3.83;1.97;;;20.10;99.90;;;;;;4967127;28;20257;-68
2023/08/10 10:53:35;;;;;;;2.97;1.43;;;20.30;99.90;;;;;;4967052;28;20317;-66
2023/08/10 10:56:02;;;;;;;3.77;1.70;;;20.30;99.90;;;;;;4967122;28;20206;-66
2023/08/10 10:58:31;;;;;;;5.77;1.90;;;20.00;99.90;;;;;;4966287;28;20210;-66
2023/08/10 11:00:58;;;;;;;2.27;1.63;;;19.80;99.90;;;;;;4966864;28;20215;-66
2023/08/10 11:03:29;;;;;;;4.60;1.53;;;19.80;99.90;;;;;;4966336;28;20948;-66
2023/08/10 11:05:56;;;;;;;3.20;1.73;;;19.80;99.90;;;;;;4966922;28;20642;-66
2023/08/10 11:08:24;;;;;;;3.80;1.73;;;19.80;99.90;;;;;;4965310;28;20242;-66
2023/08/10 11:10:51;;;;;;;5.37;1.70;;;19.70;99.90;;;;;;4966640;28;20229;-66
2023/08/10 11:13:20;;;;;;;2.80;1.70;;;19.60;99.90;;;;;;4966175;28;20678;-66
2023/08/10 11:15:49;;;;;;;7.10;1.67;;;19.60;99.90;;;;;;4966480;28;20694;-66
2023/08/10 11:18:16;;;;;;;3.30;1.60;;;19.60;99.90;;;;;;4966681;28;20258;-66
2023/08/10 11:20:45;;;;;;;2.73;1.50;;;19.70;99.90;;;;;;4966558;28;20217;-66
2023/08/10 11:23:13;;;;;;;2.50;1.50;;;19.60;99.90;;;;;;4966590;28;20242;-66
2023/08/10 11:25:49;;;;;;;4.60;1.73;;;19.80;99.90;;;;;;4966762;28;20217;-66
2023/08/10 11:28:17;;;;;;;2.67;1.63;;;20.10;99.90;;;;;;4965920;28;20321;-66
2023/08/10 11:30:45;;;;;;;2.43;1.43;;;20.40;99.90;;;;;;4966571;28;20575;-66
2023/08/10 11:33:12;;;;;;;2.77;1.50;;;20.50;99.90;;;;;;4966011;28;20249;-66
2023/08/10 11:35:49;;;;;;;3.43;1.50;;;20.50;99.90;;;;;;4966759;28;20221;-66
2023/08/10 11:38:16;;;;;;;2.30;1.50;;;20.20;99.90;;;;;;4965910;28;20210;-66
2023/08/10 11:40:43;;;;;;;1.40;1.20;;;20.20;99.90;;;;;;4966119;28;20211;-66
2023/08/10 11:43:15;;;;;;;4.50;1.50;;;20.30;99.90;;;;;;4966305;28;20211;-66
2023/08/10 11:45:43;;;;;;;3.47;1.40;;;20.20;99.90;;;;;;4966648;28;20266;-66
2023/08/10 11:48:11;;;;;;;3.57;1.10;;;20.10;99.90;;;;;;4966597;28;20330;-66
2023/08/10 11:50:39;;;;;;;4.33;1.63;;;20.40;99.90;;;;;;4966757;28;20786;-66
2023/08/10 11:53:13;;;;;;;4.80;1.43;;;20.50;99.90;;;;;;4966728;28;20297;-66
2023/08/10 11:55:45;;;;;;;4.00;1.40;;;20.80;99.90;;;;;;4966717;28;20195;-66
2023/08/10 11:58:13;;;;;;;3.22;2.00;;;20.90;99.90;;;;;;4966333;28;20242;-66
2023/08/10 12:00:41;;;;;;;3.97;2.83;;;20.90;99.90;;;;;;4966668;28;20249;-66
2023/08/10 12:03:11;;;;;;;3.23;1.30;;;20.80;99.90;;;;;;4966291;28;20753;-66
2023/08/10 12:05:44;;;;;;;4.47;1.40;;;20.70;99.90;;;;;;4966088;28;20196;-66
2023/08/10 12:08:14;;;;;;;1.77;1.10;;;20.50;99.90;;;;;;4966281;28;20349;-66
2023/08/10 12:10:42;;;;;;;3.73;1.37;;;20.50;99.90;;;;;;4966597;28;20256;-66
2023/08/10 12:13:11;;;;;;;2.63;1.30;;;20.70;99.90;;;;;;4965882;28;20262;-66
2023/08/10 12:15:38;;;;;;;4.90;1.25;;;20.90;99.90;;;;;;4965826;28;20210;-66
2023/08/10 12:18:06;;;;;;;3.43;1.50;;;20.80;99.90;;;;;;4966527;28;20310;-66
2023/08/10 12:20:33;;;;;;;2.80;1.40;;;20.90;99.90;;;;;;4969603;28;20214;-67
2023/08/10 12:23:00;;;;;;;3.67;1.30;;;21.00;99.90;;;;;;4970101;28;20221;-66
2023/08/10 12:25:29;;;;;;;3.72;1.33;;;21.10;99.90;;;;;;4969202;28;20297;-67
2023/08/10 12:27:55;;;;;;;2.85;1.42;;;21.30;99.90;;;;;;4969380;28;20310;-66
2023/08/10 12:30:23;;;;;;;1.27;1.17;;;21.40;99.90;;;;;;4969889;28;20702;-66
2023/08/10 12:32:50;;;;;;;2.15;1.30;;;21.60;99.90;;;;;;4969118;28;20253;-67
2023/08/10 12:35:17;;;;;;;2.75;1.50;;;21.90;99.90;;;;;;4969082;28;20215;-66
2023/08/10 12:37:46;;;;;;;4.57;1.67;;;22.10;99.90;;;;;;4968991;28;20230;-66
2023/08/10 12:40:13;;;;;;;2.33;1.60;;;22.40;99.90;;;;;;4968699;28;20310;-66
2023/08/10 12:42:41;;;;;;;2.17;1.52;;;22.60;99.90;;;;;;4968974;28;20242;-66
2023/08/10 12:45:10;;;;;;;2.65;1.60;;;22.70;99.90;;;;;;4968894;28;20306;-66
2023/08/10 12:47:38;;;;;;;3.58;1.58;;;22.90;99.90;;;;;;4968989;28;20238;-66
2023/08/10 12:50:05;;;;;;;2.80;1.50;;;22.80;99.90;;;;;;4969411;28;20221;-66
2023/08/10 12:52:32;;;;;;;1.77;1.20;;;22.70;99.90;;;;;;4969319;28;20210;-66